Time;durP1;ratioP1;P1;durP2;ratioP2;P2;SDS_P1;SDS_P2;PMS_P1;PMS_P2;Temp;Humidity;BMP_temperature;BMP_pressure;BME280_temperature;BME280_humidity;BME280_pressure;Samples;Min_cycle;Max_cycle;Signal;HPM_P1;HPM_P2
2023/12/12 00:01:43;;;;;;;;;;;;;;;24.98;35.53;100511.78;4231212;28;19919;-56
2023/12/12 00:03:45;;;;;;;;;;;;;;;24.99;35.61;100513.44;4231565;28;19919;-57
2023/12/12 00:05:46;;;;;;;;;;;;;;;25.01;35.21;100499.84;4231463;28;19919;-57
2023/12/12 00:07:48;;;;;;;;;;;;;;;25.00;35.35;100498.16;4231355;28;19924;-57
2023/12/12 00:09:49;;;;;;;;;;;;;;;24.99;35.09;100505.38;4231526;28;20382;-56
2023/12/12 00:11:52;;;;;;;;;;;;;;;24.99;35.20;100513.44;4231452;28;19923;-57
2023/12/12 00:13:54;;;;;;;;;;;;;;;24.98;35.33;100514.47;4231314;28;19927;-57
2023/12/12 00:15:56;;;;;;;;;;;;;;;24.96;35.36;100516.44;4230978;28;19926;-56
2023/12/12 00:17:57;;;;;;;;;;;;;;;24.96;35.47;100510.22;4230119;28;19919;-57
2023/12/12 00:20:00;;;;;;;;;;;;;;;24.97;35.51;100520.84;4231718;27;20013;-56
2023/12/12 00:22:01;;;;;;;;;;;;;;;24.98;35.62;100527.06;4231409;28;19920;-56
2023/12/12 00:24:03;;;;;;;;;;;;;;;24.99;35.61;100516.13;4231265;28;20351;-57
2023/12/12 00:26:07;;;;;;;;;;;;;;;25.02;35.16;100501.53;4231244;28;20019;-56
2023/12/12 00:28:09;;;;;;;;;;;;;;;25.03;35.42;100489.75;4231347;28;19920;-58
2023/12/12 00:30:12;;;;;;;;;;;;;;;25.03;35.15;100490.63;4231067;28;19926;-57
2023/12/12 00:32:13;;;;;;;;;;;;;;;25.01;35.24;100498.00;4231186;28;19919;-56
2023/12/12 00:34:15;;;;;;;;;;;;;;;25.01;35.44;100497.16;4231169;28;20348;-57
2023/12/12 00:36:16;;;;;;;;;;;;;;;24.99;35.52;100483.00;4229329;28;20042;-57
2023/12/12 00:38:18;;;;;;;;;;;;;;;24.98;35.39;100487.56;4230518;28;19920;-55
2023/12/12 00:40:19;;;;;;;;;;;;;;;24.97;35.42;100488.56;4231036;28;19927;-57
2023/12/12 00:42:21;;;;;;;;;;;;;;;24.97;35.42;100485.00;4231159;28;20373;-56
2023/12/12 00:44:22;;;;;;;;;;;;;;;24.97;35.74;100477.78;4231187;28;19923;-57
2023/12/12 00:46:24;;;;;;;;;;;;;;;24.99;35.83;100474.94;4230513;28;19919;-56
2023/12/12 00:48:25;;;;;;;;;;;;;;;25.02;35.39;100478.16;4231176;28;19926;-57
2023/12/12 00:50:27;;;;;;;;;;;;;;;25.02;35.40;100467.41;4230961;28;20006;-57
2023/12/12 00:52:29;;;;;;;;;;;;;;;25.03;35.35;100463.72;4231026;28;19958;-57
2023/12/12 00:54:31;;;;;;;;;;;;;;;25.02;35.43;100467.41;4230991;28;19919;-57
2023/12/12 00:56:33;;;;;;;;;;;;;;;25.02;35.56;100459.31;4230682;28;20410;-56
2023/12/12 00:58:34;;;;;;;;;;;;;;;25.01;35.61;100454.94;4230960;28;20382;-56
2023/12/12 01:00:36;;;;;;;;;;;;;;;25.01;35.48;100452.25;4230293;28;20010;-57
2023/12/12 01:02:37;;;;;;;;;;;;;;;24.99;35.41;100446.19;4230711;28;19948;-57
2023/12/12 01:04:39;;;;;;;;;;;;;;;24.99;35.41;100451.56;4230897;28;20404;-56
2023/12/12 01:06:40;;;;;;;;;;;;;;;25.01;35.68;100452.25;4230610;28;20405;-57
2023/12/12 01:08:42;;;;;;;;;;;;;;;25.02;35.84;100453.94;4230608;28;19919;-56
2023/12/12 01:10:44;;;;;;;;;;;;;;;25.04;35.67;100448.41;4230781;28;19950;-54
2023/12/12 01:12:45;;;;;;;;;;;;;;;25.06;35.73;100445.59;4230547;28;20018;-56
2023/12/12 01:14:47;;;;;;;;;;;;;;;25.08;35.34;100446.25;4230224;28;19920;-53
2023/12/12 01:16:48;;;;;;;;;;;;;;;25.09;35.81;100435.31;4230596;28;19923;-57
2023/12/12 01:18:50;;;;;;;;;;;;;;;25.06;35.77;100443.72;4230699;28;19920;-57
2023/12/12 01:20:51;;;;;;;;;;;;;;;25.05;35.84;100439.34;4230633;28;20347;-57
2023/12/12 01:22:53;;;;;;;;;;;;;;;24.95;35.77;100414.38;4230665;28;20380;-57
2023/12/12 01:24:54;;;;;;;;;;;;;;;25.03;35.62;100426.03;4230676;28;19920;-57
2023/12/12 01:26:56;;;;;;;;;;;;;;;25.02;35.64;100427.03;4230602;28;19988;-57
2023/12/12 01:28:57;;;;;;;;;;;;;;;25.01;35.74;100425.34;4230267;28;19972;-56
2023/12/12 01:30:59;;;;;;;;;;;;;;;25.02;35.69;100427.03;4230829;28;20354;-57
2023/12/12 01:33:01;;;;;;;;;;;;;;;25.04;35.79;100416.13;4229235;28;19947;-55
2023/12/12 01:35:02;;;;;;;;;;;;;;;25.05;35.69;100412.44;4230747;28;20111;-53
2023/12/12 01:37:04;;;;;;;;;;;;;;;25.07;35.49;100413.13;4230520;28;19920;-57
2023/12/12 01:39:05;;;;;;;;;;;;;;;25.08;35.52;100408.56;4230327;28;20394;-56
2023/12/12 01:41:07;;;;;;;;;;;;;;;25.10;35.49;100411.97;4230569;28;20315;-57
2023/12/12 01:43:08;;;;;;;;;;;;;;;25.08;35.69;100422.88;4229881;28;19920;-57
2023/12/12 01:45:10;;;;;;;;;;;;;;;25.08;35.56;100416.66;4230499;28;19924;-57
2023/12/12 01:47:12;;;;;;;;;;;;;;;25.07;35.91;100414.94;4230200;28;19919;-57
2023/12/12 01:49:15;;;;;;;;;;;;;;;25.06;35.75;100418.66;4232890;28;20287;-57
2023/12/12 01:51:17;;;;;;;;;;;;;;;25.05;35.66;100420.50;4234016;28;19926;-57
2023/12/12 01:53:20;;;;;;;;;;;;;;;25.05;35.62;100409.75;4233633;28;19927;-57
2023/12/12 01:55:22;;;;;;;;;;;;;;;25.06;35.80;100402.53;4233633;28;19970;-57
2023/12/12 01:57:24;;;;;;;;;;;;;;;25.06;35.74;100406.06;4233368;28;19920;-57
2023/12/12 01:59:26;;;;;;;;;;;;;;;25.09;36.00;100418.34;4233443;28;19973;-57
2023/12/12 02:01:28;;;;;;;;;;;;;;;25.09;35.66;100421.03;4233766;28;19925;-58
2023/12/12 02:03:30;;;;;;;;;;;;;;;25.10;35.87;100415.50;4233601;28;20025;-57
2023/12/12 02:05:33;;;;;;;;;;;;;;;25.10;35.52;100417.34;4233553;28;19933;-57
2023/12/12 02:07:35;;;;;;;;;;;;;;;25.10;35.79;100403.88;4233448;28;19919;-56
2023/12/12 02:09:37;;;;;;;;;;;;;;;25.08;35.98;100408.56;4232335;28;19920;-51
2023/12/12 02:11:39;;;;;;;;;;;;;;;25.08;35.56;100400.50;4233243;28;20030;-56
2023/12/12 02:13:40;;;;;;;;;;;;;;;25.07;35.76;100396.97;4233305;28;19920;-57
2023/12/12 02:15:42;;;;;;;;;;;;;;;25.06;35.78;100381.84;4233282;28;19933;-57
2023/12/12 02:17:43;;;;;;;;;;;;;;;25.07;35.77;100383.53;4233307;28;20022;-57
2023/12/12 02:19:45;;;;;;;;;;;;;;;25.10;35.77;100390.44;4233524;28;20002;-56
2023/12/12 02:21:46;;;;;;;;;;;;;;;25.10;35.78;100387.75;4233347;28;19920;-56
2023/12/12 02:23:47;;;;;;;;;;;;;;;25.13;35.89;100388.28;4233061;28;19923;-57
2023/12/12 02:25:50;;;;;;;;;;;;;;;25.13;35.71;100376.66;4233377;28;19927;-57
2023/12/12 02:27:52;;;;;;;;;;;;;;;25.13;35.80;100379.34;4233094;28;20392;-56
2023/12/12 02:29:53;;;;;;;;;;;;;;;25.13;35.74;100373.97;4233327;28;19924;-57
2023/12/12 02:31:55;;;;;;;;;;;;;;;25.12;35.90;100369.59;4233141;28;19926;-57
2023/12/12 02:33:56;;;;;;;;;;;;;;;25.12;35.95;100372.28;4233072;28;19923;-57
2023/12/12 02:35:58;;;;;;;;;;;;;;;25.10;35.95;100369.75;4233076;28;19947;-57
2023/12/12 02:37:59;;;;;;;;;;;;;;;25.09;35.97;100368.03;4233187;28;20311;-57
2023/12/12 02:40:01;;;;;;;;;;;;;;;25.08;35.74;100362.84;4232972;28;20301;-57
2023/12/12 02:42:03;;;;;;;;;;;;;;;25.10;35.88;100360.84;4232684;28;19920;-57
2023/12/12 02:44:05;;;;;;;;;;;;;;;25.11;35.84;100347.22;4232808;28;19972;-56
2023/12/12 02:46:06;;;;;;;;;;;;;;;25.14;36.12;100349.59;4233133;28;19931;-57
2023/12/12 02:48:08;;;;;;;;;;;;;;;25.15;35.81;100335.16;4232784;28;19926;-58
2023/12/12 02:50:09;;;;;;;;;;;;;;;25.15;35.75;100334.28;4232798;28;20081;-57
2023/12/12 02:52:11;;;;;;;;;;;;;;;25.15;35.74;100332.47;4232817;28;20026;-57
2023/12/12 02:54:13;;;;;;;;;;;;;;;25.15;36.12;100315.44;4232848;28;20040;-57
2023/12/12 02:56:14;;;;;;;;;;;;;;;25.12;36.07;100311.22;4231032;28;19927;-57
2023/12/12 02:58:16;;;;;;;;;;;;;;;25.12;36.12;100305.84;4232882;28;20007;-57
2023/12/12 03:00:17;;;;;;;;;;;;;;;25.11;36.05;100308.72;4231925;28;19923;-57
2023/12/12 03:02:19;;;;;;;;;;;;;;;25.11;35.76;100300.63;4232470;28;19928;-57
2023/12/12 03:04:20;;;;;;;;;;;;;;;25.12;35.84;100297.78;4232372;28;19920;-57
2023/12/12 03:06:22;;;;;;;;;;;;;;;25.13;36.00;100291.41;4232750;28;20316;-57
2023/12/12 03:08:24;;;;;;;;;;;;;;;25.14;36.15;100282.31;4232407;28;19931;-56
2023/12/12 03:10:25;;;;;;;;;;;;;;;25.15;35.99;100275.94;4232184;28;19942;-56
2023/12/12 03:12:27;;;;;;;;;;;;;;;25.16;35.88;100279.47;4232374;28;20016;-56
2023/12/12 03:14:29;;;;;;;;;;;;;;;25.17;36.05;100294.63;4232286;28;19923;-57
2023/12/12 03:16:30;;;;;;;;;;;;;;;25.17;35.86;100291.94;4231075;28;19969;-57
2023/12/12 03:18:32;;;;;;;;;;;;;;;25.15;36.09;100296.63;4232456;28;19977;-57
2023/12/12 03:20:33;;;;;;;;;;;;;;;25.14;35.89;100286.84;4231131;28;19923;-57
2023/12/12 03:22:35;;;;;;;;;;;;;;;25.13;35.87;100287.84;4232542;28;20014;-57
2023/12/12 03:24:37;;;;;;;;;;;;;;;25.10;35.88;100280.94;4232244;28;20389;-57
2023/12/12 03:26:39;;;;;;;;;;;;;;;25.11;36.12;100277.25;4232191;28;19919;-56
2023/12/12 03:28:40;;;;;;;;;;;;;;;25.12;36.11;100273.56;4232127;28;19970;-56
2023/12/12 03:30:42;;;;;;;;;;;;;;;25.13;35.89;100263.63;4232272;28;19927;-56
2023/12/12 03:32:43;;;;;;;;;;;;;;;25.16;36.12;100258.78;4232317;28;19919;-56
2023/12/12 03:34:45;;;;;;;;;;;;;;;25.16;35.82;100261.47;4232224;28;20297;-57
2023/12/12 03:36:46;;;;;;;;;;;;;;;25.17;35.84;100246.19;4231930;28;19973;-57
2023/12/12 03:38:48;;;;;;;;;;;;;;;25.15;35.82;100246.34;4231911;28;19927;-57
2023/12/12 03:40:49;;;;;;;;;;;;;;;25.16;35.77;100241.78;4232104;28;19926;-57
2023/12/12 03:42:51;;;;;;;;;;;;;;;25.15;35.77;100237.41;4232045;28;19924;-57
2023/12/12 03:44:52;;;;;;;;;;;;;;;25.13;35.80;100228.66;4232097;28;20390;-57
2023/12/12 03:46:54;;;;;;;;;;;;;;;25.12;35.82;100235.91;4230481;28;20013;-57
2023/12/12 03:48:55;;;;;;;;;;;;;;;25.10;36.03;100227.13;4231992;28;19925;-57
2023/12/12 03:50:57;;;;;;;;;;;;;;;25.11;35.89;100223.44;4231940;28;19924;-56
2023/12/12 03:52:58;;;;;;;;;;;;;;;25.13;36.18;100225.97;4231493;28;19993;-57
2023/12/12 03:55:00;;;;;;;;;;;;;;;25.14;35.98;100214.19;4231658;28;19919;-57
2023/12/12 03:57:03;;;;;;;;;;;;;;;25.15;36.17;100213.19;4231802;28;19956;-56
2023/12/12 03:59:04;;;;;;;;;;;;;;;25.15;35.77;100208.66;4231844;27;20378;-56
2023/12/12 04:01:06;;;;;;;;;;;;;;;25.16;35.85;100204.13;4231731;28;19919;-56
2023/12/12 04:03:08;;;;;;;;;;;;;;;25.16;36.10;100206.81;4231691;28;19924;-56
2023/12/12 04:05:10;;;;;;;;;;;;;;;25.15;35.85;100205.13;4231324;28;19950;-56
2023/12/12 04:07:11;;;;;;;;;;;;;;;25.14;35.82;100204.28;4231434;28;19926;-57
2023/12/12 04:09:13;;;;;;;;;;;;;;;25.13;36.30;100202.59;4230933;28;19920;-56
2023/12/12 04:11:14;;;;;;;;;;;;;;;25.11;36.07;100211.84;4231244;28;20033;-57
2023/12/12 04:13:16;;;;;;;;;;;;;;;25.12;35.84;100203.59;4231395;27;19923;-57
2023/12/12 04:15:17;;;;;;;;;;;;;;;25.14;35.93;100203.44;4231504;28;20348;-56
2023/12/12 04:17:19;;;;;;;;;;;;;;;25.15;35.88;100197.91;4231489;28;19928;-57
2023/12/12 04:19:20;;;;;;;;;;;;;;;25.17;35.81;100198.56;4231633;28;20301;-56
2023/12/12 04:21:23;;;;;;;;;;;;;;;25.17;35.80;100200.44;4231228;28;19921;-56
2023/12/12 04:23:24;;;;;;;;;;;;;;;25.18;36.16;100196.75;4231151;28;19923;-57
2023/12/12 04:25:26;;;;;;;;;;;;;;;25.17;35.76;100195.88;4231461;28;19919;-56
2023/12/12 04:27:27;;;;;;;;;;;;;;;25.19;35.79;100203.81;4231161;28;19943;-57
2023/12/12 04:29:29;;;;;;;;;;;;;;;25.17;35.76;100200.44;4231252;28;20006;-56
2023/12/12 04:31:31;;;;;;;;;;;;;;;25.16;35.94;100202.25;4231372;28;20376;-56
2023/12/12 04:33:32;;;;;;;;;;;;;;;25.14;35.99;100211.50;4231086;28;19920;-56
2023/12/12 04:35:34;;;;;;;;;;;;;;;25.14;35.83;100212.38;4231021;28;19939;-55
2023/12/12 04:37:36;;;;;;;;;;;;;;;25.15;36.12;100205.13;4230753;28;20012;-56
2023/12/12 04:39:38;;;;;;;;;;;;;;;25.16;35.92;100209.50;4231326;28;19927;-56
2023/12/12 04:41:39;;;;;;;;;;;;;;;25.18;35.80;100208.31;4231140;28;19926;-57
2023/12/12 04:43:41;;;;;;;;;;;;;;;25.19;35.92;100201.94;4231100;28;19919;-56
2023/12/12 04:45:43;;;;;;;;;;;;;;;25.20;35.84;100203.63;4230908;28;19919;-56
2023/12/12 04:47:44;;;;;;;;;;;;;;;25.20;35.85;100190.19;4230858;28;19968;-56
2023/12/12 04:49:46;;;;;;;;;;;;;;;25.20;35.85;100181.25;4230772;28;19919;-56
2023/12/12 04:51:48;;;;;;;;;;;;;;;25.19;35.86;100177.72;4230525;28;20384;-56
2023/12/12 04:53:49;;;;;;;;;;;;;;;25.18;35.98;100178.72;4230996;28;19927;-56
2023/12/12 04:55:51;;;;;;;;;;;;;;;25.19;36.15;100179.59;4230725;28;19924;-56
2023/12/12 04:57:52;;;;;;;;;;;;;;;25.16;36.25;100169.97;4230848;28;19919;-56
2023/12/12 04:59:54;;;;;;;;;;;;;;;25.16;36.08;100169.97;4230972;28;19951;-56
2023/12/12 05:01:55;;;;;;;;;;;;;;;25.18;35.90;100167.97;4230700;28;19973;-56
2023/12/12 05:03:57;;;;;;;;;;;;;;;25.20;36.15;100163.28;4230718;28;20332;-57
2023/12/12 05:05:59;;;;;;;;;;;;;;;25.23;35.85;100159.41;4230502;28;19927;-57
2023/12/12 05:08:01;;;;;;;;;;;;;;;25.23;36.09;100158.56;4230366;28;20344;-56
2023/12/12 05:10:02;;;;;;;;;;;;;;;25.23;35.91;100147.81;4230952;28;20040;-56
2023/12/12 05:12:04;;;;;;;;;;;;;;;25.22;36.15;100146.94;4230657;28;20044;-55
2023/12/12 05:14:06;;;;;;;;;;;;;;;25.22;35.86;100149.66;4230668;28;19926;-55
2023/12/12 05:16:08;;;;;;;;;;;;;;;25.22;36.16;100144.25;4230549;28;19947;-55
2023/12/12 05:18:28;;;;;;;;;;;;;;;25.21;35.89;100156.03;4230619;28;19923;-53
2023/12/12 05:20:30;;;;;;;;;;;;;;;25.19;36.14;100156.19;4230173;28;19924;-53
2023/12/12 05:22:34;;;;;;;;;;;;;;;25.18;35.91;100164.44;4230450;28;19939;-55
2023/12/12 05:24:36;;;;;;;;;;;;;;;25.19;36.11;100158.06;4230616;28;19955;-57
2023/12/12 05:26:38;;;;;;;;;;;;;;;25.20;36.11;100151.66;4230271;28;20010;-56
2023/12/12 05:28:39;;;;;;;;;;;;;;;25.22;36.09;100152.34;4230454;28;20377;-56
2023/12/12 05:30:41;;;;;;;;;;;;;;;25.22;35.97;100140.75;4230674;28;20010;-56
2023/12/12 05:32:43;;;;;;;;;;;;;;;25.23;35.96;100139.75;4230689;28;19919;-56
2023/12/12 05:34:45;;;;;;;;;;;;;;;25.23;35.98;100147.81;4230237;28;19963;-57
2023/12/12 05:36:46;;;;;;;;;;;;;;;25.12;36.10;100122.88;4230648;28;20463;-56
2023/12/12 05:38:49;;;;;;;;;;;;;;;25.22;36.00;100136.19;4230507;28;19926;-56
2023/12/12 05:40:51;;;;;;;;;;;;;;;25.21;36.29;100139.88;4230294;28;19934;-57
2023/12/12 05:42:52;;;;;;;;;;;;;;;25.22;35.92;100135.34;4230512;28;19963;-57
2023/12/12 05:44:54;;;;;;;;;;;;;;;25.20;36.11;100130.97;4230518;28;19923;-57
2023/12/12 05:46:55;;;;;;;;;;;;;;;25.20;36.04;100130.97;4230600;28;19947;-56
2023/12/12 05:48:58;;;;;;;;;;;;;;;25.21;36.04;100123.72;4229775;28;19938;-56
2023/12/12 05:50:59;;;;;;;;;;;;;;;25.22;36.24;100122.72;4230534;28;20022;-56
2023/12/12 05:53:01;;;;;;;;;;;;;;;25.24;35.94;100114.47;4230411;28;19977;-56
2023/12/12 05:55:05;;;;;;;;;;;;;;;25.24;36.15;100115.34;4230465;28;20312;-56
2023/12/12 05:57:06;;;;;;;;;;;;;;;25.26;36.20;100118.69;4230401;28;19924;-56
2023/12/12 05:59:08;;;;;;;;;;;;;;;25.25;36.27;100119.72;4230239;28;19924;-56
2023/12/12 06:01:10;;;;;;;;;;;;;;;25.25;36.03;100119.72;4230245;28;19920;-56
2023/12/12 06:03:11;;;;;;;;;;;;;;;25.24;36.05;100126.09;4230327;28;19927;-56
2023/12/12 06:05:13;;;;;;;;;;;;;;;25.24;36.03;100131.50;4229678;28;19919;-56
2023/12/12 06:07:14;;;;;;;;;;;;;;;25.22;36.24;100125.41;4230119;28;19920;-56
2023/12/12 06:09:17;;;;;;;;;;;;;;;25.23;36.12;100126.28;4228857;28;19920;-56
2023/12/12 06:11:21;;;;;;;;;;;;;;;25.24;36.32;100123.41;4230288;28;19920;-56
2023/12/12 06:13:22;;;;;;;;;;;;;;;25.25;36.06;100124.25;4230331;28;19961;-56
2023/12/12 06:15:24;;;;;;;;;;;;;;;25.25;36.14;100125.09;4230244;28;19919;-56
2023/12/12 06:17:26;;;;;;;;;;;;;;;25.28;36.02;100129.31;4230322;28;20439;-56
2023/12/12 06:19:28;;;;;;;;;;;;;;;25.28;36.08;100107.78;4229841;28;19920;-56
2023/12/12 06:21:33;;;;;;;;;;;;;;;25.28;36.13;100105.09;4230313;28;19926;-57
2023/12/12 06:23:35;;;;;;;;;;;;;;;25.29;36.10;100098.69;4230164;28;19919;-56
2023/12/12 06:25:36;;;;;;;;;;;;;;;25.28;36.05;100088.94;4230074;28;20313;-56
2023/12/12 06:27:38;;;;;;;;;;;;;;;25.28;36.01;100083.56;4229908;28;19941;-56
2023/12/12 06:29:40;;;;;;;;;;;;;;;25.27;36.30;100092.63;4228887;28;20382;-56
2023/12/12 06:31:41;;;;;;;;;;;;;;;25.24;36.30;100085.75;4230129;28;19973;-56
2023/12/12 06:33:43;;;;;;;;;;;;;;;25.25;36.50;100086.56;4229806;28;20283;-56
2023/12/12 06:35:45;;;;;;;;;;;;;;;25.24;36.17;100091.13;4231688;28;20123;-56
2023/12/12 06:37:46;;;;;;;;;;;;;;;25.26;36.18;100088.25;4232819;28;19920;-55
2023/12/12 06:39:48;;;;;;;;;;;;;;;25.28;36.42;100092.47;4233164;28;20236;-57
2023/12/12 06:41:49;;;;;;;;;;;;;;;25.28;36.10;100097.84;4232921;28;19920;-56
2023/12/12 06:43:51;;;;;;;;;;;;;;;25.29;36.13;100096.00;4232806;28;19959;-57
2023/12/12 06:45:52;;;;;;;;;;;;;;;25.28;36.24;100097.84;4232904;28;19962;-57
2023/12/12 06:47:54;;;;;;;;;;;;;;;25.28;36.18;100105.09;4232332;28;19920;-57
2023/12/12 06:49:56;;;;;;;;;;;;;;;25.28;36.20;100110.47;4232627;28;19958;-55
2023/12/12 06:51:57;;;;;;;;;;;;;;;25.27;36.30;100104.22;4232730;28;19920;-56
2023/12/12 06:53:59;;;;;;;;;;;;;;;25.25;36.14;100102.72;4232797;28;20238;-57
2023/12/12 06:56:01;;;;;;;;;;;;;;;25.24;36.46;100103.72;4232723;28;19920;-56
2023/12/12 06:58:03;;;;;;;;;;;;;;;25.25;36.50;100103.56;4232977;28;19920;-56
2023/12/12 07:00:08;;;;;;;;;;;;;;;25.27;36.46;100103.41;4232768;28;20378;-57
2023/12/12 07:02:10;;;;;;;;;;;;;;;25.28;36.52;100097.84;4232365;28;20023;-57
2023/12/12 07:04:12;;;;;;;;;;;;;;;25.28;36.50;100091.63;4232623;28;19919;-53
2023/12/12 07:06:15;;;;;;;;;;;;;;;25.28;36.16;100107.78;4231487;28;19973;-56
2023/12/12 07:08:18;;;;;;;;;;;;;;;25.29;36.13;100104.91;4232468;28;19972;-56
2023/12/12 07:10:20;;;;;;;;;;;;;;;25.29;36.16;100104.91;4232750;28;19964;-56
2023/12/12 07:12:24;;;;;;;;;;;;;;;25.29;36.16;100118.38;4232723;28;20018;-56
2023/12/12 07:14:43;;;;;;;;;;;;;;;25.26;36.09;100121.38;4232364;28;19962;-56
2023/12/12 07:16:45;;;;;;;;;;;;;;;25.24;36.31;100125.25;4232196;28;19923;-56
2023/12/12 07:18:46;;;;;;;;;;;;;;;25.22;36.24;100116.53;4232389;28;19919;-56
2023/12/12 07:20:48;;;;;;;;;;;;;;;25.22;36.34;100120.03;4232569;28;19924;-56
2023/12/12 07:22:50;;;;;;;;;;;;;;;25.21;36.29;100123.72;4232295;28;19988;-57
2023/12/12 07:24:51;;;;;;;;;;;;;;;25.24;36.42;100122.56;4232218;28;19920;-56
2023/12/12 07:26:53;;;;;;;;;;;;;;;25.25;36.60;100118.88;4232161;28;19930;-56
2023/12/12 07:28:55;;;;;;;;;;;;;;;25.26;36.55;100124.06;4231039;28;19923;-56
2023/12/12 07:30:56;;;;;;;;;;;;;;;25.25;36.42;100113.47;4231753;28;19968;-54
2023/12/12 07:32:58;;;;;;;;;;;;;;;25.25;36.25;100121.56;4232172;28;20345;-56
2023/12/12 07:35:00;;;;;;;;;;;;;;;25.23;36.49;100120.91;4232098;28;20443;-56
2023/12/12 07:37:02;;;;;;;;;;;;;;;25.22;36.66;100117.34;4231849;28;19920;-57
2023/12/12 07:39:05;;;;;;;;;;;;;;;25.20;36.53;100120.22;4232186;28;20028;-57
2023/12/12 07:41:07;;;;;;;;;;;;;;;25.19;36.30;100115.00;4232174;28;19923;-55
2023/12/12 07:43:09;;;;;;;;;;;;;;;25.00;36.52;100087.34;4232083;28;19934;-55
2023/12/12 07:45:10;;;;;;;;;;;;;;;25.20;36.38;100108.59;4231603;28;19923;-54
2023/12/12 07:47:12;;;;;;;;;;;;;;;25.22;36.38;100111.13;4231535;28;19919;-55
2023/12/12 07:49:14;;;;;;;;;;;;;;;25.24;36.30;100114.47;4231826;28;19926;-55
2023/12/12 07:51:16;;;;;;;;;;;;;;;25.26;36.27;100116.00;4231872;28;20069;-54
2023/12/12 07:53:17;;;;;;;;;;;;;;;25.27;36.58;100112.31;4231795;28;19923;-56
2023/12/12 07:55:19;;;;;;;;;;;;;;;25.27;36.31;100119.56;4231920;28;19926;-56
2023/12/12 07:57:21;;;;;;;;;;;;;;;25.25;36.61;100114.34;4231828;28;19920;-56
2023/12/12 07:59:23;;;;;;;;;;;;;;;25.24;36.37;100114.47;4231653;28;19920;-57
2023/12/12 08:01:24;;;;;;;;;;;;;;;25.24;36.37;100114.47;4231259;28;20006;-55
2023/12/12 08:03:26;;;;;;;;;;;;;;;25.21;36.47;100110.28;4231452;28;20015;-55
2023/12/12 08:05:28;;;;;;;;;;;;;;;25.22;36.33;100109.28;4230432;28;19923;-56
2023/12/12 08:07:30;;;;;;;;;;;;;;;25.22;36.38;100106.59;4231677;28;19920;-55
2023/12/12 08:09:32;;;;;;;;;;;;;;;25.24;36.24;100117.16;4231440;28;20481;-53
2023/12/12 08:11:33;;;;;;;;;;;;;;;25.27;36.44;100111.47;4231512;28;20021;-55
2023/12/12 08:13:35;;;;;;;;;;;;;;;25.28;36.41;100108.59;4231594;28;19970;-56
2023/12/12 08:15:37;;;;;;;;;;;;;;;25.30;36.39;100112.00;4231105;28;20014;-56
2023/12/12 08:17:38;;;;;;;;;;;;;;;25.30;36.21;100111.13;4231455;28;19927;-56
2023/12/12 08:19:40;;;;;;;;;;;;;;;25.29;36.35;100101.41;4231405;28;20286;-56
2023/12/12 08:21:42;;;;;;;;;;;;;;;25.28;36.52;100102.41;4231311;28;19926;-55
2023/12/12 08:23:44;;;;;;;;;;;;;;;25.27;36.29;100104.22;4231421;28;20032;-55
2023/12/12 08:25:45;;;;;;;;;;;;;;;25.27;36.40;100092.63;4231443;28;19919;-54
2023/12/12 08:27:47;;;;;;;;;;;;;;;25.26;36.74;100088.25;4231169;28;19924;-56
2023/12/12 08:29:49;;;;;;;;;;;;;;;25.26;36.38;100093.63;4230729;28;20027;-56
2023/12/12 08:31:50;;;;;;;;;;;;;;;25.27;36.32;100092.63;4231465;28;19920;-56
2023/12/12 08:33:52;;;;;;;;;;;;;;;25.29;36.55;100087.94;4231562;28;19920;-57
2023/12/12 08:35:53;;;;;;;;;;;;;;;25.32;36.58;100095.66;4231266;28;19973;-57
2023/12/12 08:37:55;;;;;;;;;;;;;;;25.33;36.26;100100.88;4230967;28;19919;-56
2023/12/12 08:39:56;;;;;;;;;;;;;;;25.33;36.17;100100.88;4230904;28;19919;-55
2023/12/12 08:41:58;;;;;;;;;;;;;;;25.32;36.30;100096.53;4231186;28;20374;-54
2023/12/12 08:44:00;;;;;;;;;;;;;;;25.32;36.27;100101.91;4229336;28;19927;-57
2023/12/12 08:46:01;;;;;;;;;;;;;;;25.32;36.42;100106.44;4230915;28;19947;-56
2023/12/12 08:48:03;;;;;;;;;;;;;;;25.32;36.50;100109.13;4231134;28;20018;-56
2023/12/12 08:50:05;;;;;;;;;;;;;;;25.30;36.52;100105.75;4230915;28;19985;-56
2023/12/12 08:52:07;;;;;;;;;;;;;;;25.30;36.36;100113.81;4231210;28;19946;-56
2023/12/12 08:54:09;;;;;;;;;;;;;;;25.30;36.24;100114.69;4230833;28;19920;-56
2023/12/12 08:56:11;;;;;;;;;;;;;;;25.33;36.50;100110.81;4231090;28;19920;-57
2023/12/12 08:58:13;;;;;;;;;;;;;;;25.34;36.53;100118.72;4230063;28;20014;-56
2023/12/12 09:00:14;;;;;;;;;;;;;;;25.34;36.16;100113.31;4230726;28;19919;-56
2023/12/12 09:02:17;;;;;;;;;;;;;;;25.36;36.26;100116.69;4231201;28;19973;-57
2023/12/12 09:04:19;;;;;;;;;;;;;;;25.36;36.27;100114.00;4230718;28;19920;-56
2023/12/12 09:06:21;;;;;;;;;;;;;;;25.36;36.25;100108.63;4230806;28;19955;-56
2023/12/12 09:08:22;;;;;;;;;;;;;;;25.36;36.28;100114.00;4230439;28;20309;-56
2023/12/12 09:10:24;;;;;;;;;;;;;;;25.36;36.40;100115.88;4230762;28;19931;-56
2023/12/12 09:12:26;;;;;;;;;;;;;;;25.34;36.44;100112.50;4230438;28;19931;-57
2023/12/12 09:14:27;;;;;;;;;;;;;;;25.34;36.25;100113.31;4229424;28;20007;-56
2023/12/12 09:16:29;;;;;;;;;;;;;;;25.34;36.35;100107.13;4230462;28;19965;-56
2023/12/12 09:18:31;;;;;;;;;;;;;;;25.34;36.50;100102.56;4230617;28;19924;-56
2023/12/12 09:20:32;;;;;;;;;;;;;;;25.36;36.29;100105.94;4230745;28;20026;-56
2023/12/12 09:22:34;;;;;;;;;;;;;;;25.39;36.30;100103.97;4230227;28;19972;-56
2023/12/12 09:24:36;;;;;;;;;;;;;;;25.42;36.46;100109.00;4229204;28;19926;-56
2023/12/12 09:26:37;;;;;;;;;;;;;;;25.42;36.22;100106.31;4230362;28;19954;-56
2023/12/12 09:28:40;;;;;;;;;;;;;;;25.42;36.24;100101.78;4230387;28;19919;-57
2023/12/12 09:30:41;;;;;;;;;;;;;;;25.39;36.12;100095.88;4230532;28;20006;-56
2023/12/12 09:32:43;;;;;;;;;;;;;;;25.38;36.19;100094.19;4230364;28;19920;-56
2023/12/12 09:34:45;;;;;;;;;;;;;;;25.36;36.42;100097.03;4230296;28;20447;-56
2023/12/12 09:36:46;;;;;;;;;;;;;;;25.36;36.37;100091.66;4229287;28;20349;-57
2023/12/12 09:38:48;;;;;;;;;;;;;;;25.34;36.41;100091.78;4230567;28;20302;-56
2023/12/12 09:40:49;;;;;;;;;;;;;;;25.36;36.43;100094.34;4230409;28;19955;-56
2023/12/12 09:42:51;;;;;;;;;;;;;;;25.36;36.32;100100.56;4230212;28;19920;-56
2023/12/12 09:44:59;;;;;;;;;;;;;;;25.39;36.40;100103.97;4230495;28;19959;-56
2023/12/12 09:47:03;;;;;;;;;;;;;;;25.42;36.16;100107.16;4230385;28;19965;-56
2023/12/12 09:49:07;;;;;;;;;;;;;;;25.43;36.18;100097.22;4230414;28;20259;-57
2023/12/12 09:51:08;;;;;;;;;;;;;;;25.43;36.12;100094.53;4230601;28;19982;-55
2023/12/12 09:53:10;;;;;;;;;;;;;;;25.42;36.52;100087.47;4230408;28;19926;-56
2023/12/12 09:55:12;;;;;;;;;;;;;;;25.40;36.48;100089.50;4230345;28;19948;-57
2023/12/12 09:57:16;;;;;;;;;;;;;;;25.39;36.50;100087.81;4230068;28;19919;-56
2023/12/12 09:59:18;;;;;;;;;;;;;;;25.36;36.50;100081.72;4230596;28;19929;-57
2023/12/12 10:01:22;;;;;;;;;;;;;;;25.36;36.34;100084.41;4230476;28;19920;-57
2023/12/12 10:03:24;;;;;;;;;;;;;;;25.38;36.37;100089.63;4229103;28;19926;-57
2023/12/12 10:05:26;;;;;;;;;;;;;;;25.39;36.40;100085.13;4230314;28;19920;-56
2023/12/12 10:07:28;;;;;;;;;;;;;;;25.39;36.30;100083.25;4230302;28;19919;-56
2023/12/12 10:09:32;;;;;;;;;;;;;;;25.42;36.26;100082.06;4230992;28;19920;-58
2023/12/12 10:11:33;;;;;;;;;;;;;;;25.45;36.42;100077.19;4233153;28;19927;-57
2023/12/12 10:13:54;;;;;;;;;;;;;;;25.46;36.28;100081.56;4233672;28;20378;-57
2023/12/12 10:16:10;;;;;;;;;;;;;;;25.47;36.17;100077.03;4233425;28;19919;-56
2023/12/12 10:18:11;;;;;;;;;;;;;;;25.47;36.32;100082.41;4233302;28;20349;-56
2023/12/12 10:20:22;;;;;;;;;;;;;;;25.47;36.16;100082.41;4233486;28;19942;-56
2023/12/12 10:22:24;;;;;;;;;;;;;;;25.44;36.28;100072.81;4233269;28;20309;-56
2023/12/12 10:24:27;;;;;;;;;;;;;;;25.44;36.21;100075.50;4232911;28;19924;-55
2023/12/12 10:26:31;;;;;;;;;;;;;;;25.44;36.26;100074.69;4233295;27;19924;-57